Buoy 51627

sailwx.info

Track history (hours):
 
Tides and Currents Weather Stations Pressure Air Temp Water Temp Dewpoint Dewpoint Depression Visibility Wind Speed Wind Dir Waves Ship Positions

Drifting buoy 51627

Last reported at 2015-May-22 05:00 UTC. Time now 2015-May-22 13:07 UTC.
Position N 07°06' W 157°04'.

Water temperature 29.0 ° C

Date/timePositionNaut miles runAvg speedWind from/ knotsBaromVisibWave heightAir tempDewpointWater temp
2015-May-22 05:00N 07°06' W 157°04'0 0.0 29.0
2015-May-22 04:00N 07°06' W 157°04'1 0.9 29.4
2015-May-22 03:00N 07°07' W 157°05'0 0.0 30.8
2015-May-22 02:00N 07°07' W 157°05'2 0.4 30.7
2015-May-21 20:00N 07°07' W 157°07'1 0.2 28.8
2015-May-21 16:00N 07°07' W 157°08'4 0.5 28.4
2015-May-21 08:00N 07°09' W 157°11'1 0.4 28.6
2015-May-21 05:00N 07°09' W 157°13'4 0.3 28.8
2015-May-20 16:00N 07°09' W 157°17'5 0.4 28.1
2015-May-20 04:00N 07°11' W 157°22'4 0.5 28.4
2015-May-19 20:00N 07°08' W 157°25'1 0.6 28.4
2015-May-19 19:00N 07°08' W 157°25'1 1.0 28.4
2015-May-19 18:00N 07°07' W 157°25'4 0.6 28.4
2015-May-19 12:00N 07°04' W 157°26'1 0.2 28.4
2015-May-19 08:00N 07°03' W 157°26'0 0.5 28.5
2015-May-19 07:00N 07°03' W 157°26'1 0.2 28.5
2015-May-19 04:00N 07°02' W 157°26'1 1.5 28.5
2015-May-19 03:00N 07°01' W 157°26'0 0.0 28.5
2015-May-19 02:00N 07°01' W 157°26'0 0.0 28.5
2015-May-19 01:00N 07°01' W 157°26'1 0.9 28.6
2015-May-19 00:00N 06°60' W 157°26'0 0.0 28.5
2015-May-18 23:00N 06°60' W 157°26'1 0.4 28.5
2015-May-18 20:00N 06°59' W 157°25'0 0.2 28.5
2015-May-18 19:00N 06°59' W 157°25'0 0.2 28.4
2015-May-18 17:00N 06°58' W 157°25'1 0.9 28.4
2015-May-18 16:00N 06°58' W 157°24'1 0.3 28.4
2015-May-18 11:00N 06°58' W 157°23'1 0.5 28.5
2015-May-18 08:00N 06°58' W 157°22'1 1.1 28.5
2015-May-18 07:00N 06°59' W 157°21'0 0.0 28.5
2015-May-18 06:00N 06°59' W 157°21'1 0.3 28.5
2015-May-18 04:00N 06°59' W 157°20'0 0.1 28.6
2015-May-18 02:00N 06°59' W 157°20'0 0.1 28.6
2015-May-18 01:00N 06°59' W 157°20'1 0.5 28.6
2015-May-17 23:00N 07°00' W 157°20'0 0.0 28.6
2015-May-17 22:00N 07°00' W 157°20'0 0.1 28.6
2015-May-17 21:00N 07°00' W 157°20'0 0.1 28.6
2015-May-17 15:00N 07°01' W 157°21'0 0.0 28.6
2015-May-17 14:00N 07°01' W 157°21'2 0.3 28.7
2015-May-17 07:00N 07°02' W 157°23'1 0.3 28.7
2015-May-17 04:00N 07°02' W 157°24'0 0.2 28.9
2015-May-17 03:00N 07°02' W 157°24'1 0.4 28.9
2015-May-17 01:00N 07°02' W 157°24'2 0.3 29.0
2015-May-16 17:00N 07°03' W 157°26'0 0.0 28.4
2015-May-16 16:00N 07°03' W 157°26'3 0.3 28.4
2015-May-16 08:00N 07°05' W 157°28'2 0.5 28.5
2015-May-16 04:00N 07°05' W 157°30'6 0.5 28.8
2015-May-15 16:00N 07°01' W 157°33'1 0.1 28.4
2015-May-15 06:00N 07°01' W 157°32'1 0.4 28.3
2015-May-15 04:00N 07°01' W 157°32'1 0.2 28.4
2015-May-15 01:00N 07°01' W 157°31'1 1.1 28.4
2015-May-15 00:00N 07°01' W 157°32'3 0.4 28.4
2015-May-14 17:00N 07°02' W 157°29'2 0.4 28.4
2015-May-14 13:00N 07°03' W 157°28'0 0.0 28.5
2015-May-14 12:00N 07°03' W 157°28'2 0.7 28.5
2015-May-14 09:00N 07°05' W 157°28'1 0.8 28.7
2015-May-14 08:00N 07°06' W 157°28'2 1.8 28.6
2015-May-14 07:00N 07°08' W 157°28'1 0.2 28.6
2015-May-14 04:00N 07°08' W 157°28'1 0.9 28.8
2015-May-14 03:00N 07°08' W 157°29'0 0.1 29.0
2015-May-14 00:00N 07°09' W 157°29'0 0.0 28.9
2015-May-13 23:00N 07°09' W 157°29'1 0.6 28.9
2015-May-13 21:00N 07°10' W 157°29'1 0.3 28.5
2015-May-13 19:00N 07°10' W 157°29'2 0.8 28.4
2015-May-13 17:00N 07°12' W 157°30'1 0.6 28.3
2015-May-13 15:00N 07°13' W 157°30'6 0.2 28.3
2015-May-12 16:00N 07°18' W 157°33'0 0.5 28.3
2015-May-12 15:00N 07°18' W 157°33'   28.3
Track history (hours):
 
Tides and Currents Weather Stations Pressure Air Temp Water Temp Dewpoint Dewpoint Depression Visibility Wind Speed Wind Dir Waves Ship Positions

Drifting buoy 51627

Last reported at 2015-May-22 05:00 UTC. Time now 2015-May-22 13:07 UTC.
Position N 07°06' W 157°04'.

Water temperature 29.0 ° C

Date/timePositionNaut miles runAvg speedWind from/ knotsBaromVisibWave heightAir tempDewpointWater temp
2015-May-22 05:00N 07°06' W 157°04'0 0.0 29.0
2015-May-22 04:00N 07°06' W 157°04'1 0.9 29.4
2015-May-22 03:00N 07°07' W 157°05'0 0.0 30.8
2015-May-22 02:00N 07°07' W 157°05'2 0.4 30.7
2015-May-21 20:00N 07°07' W 157°07'1 0.2 28.8
2015-May-21 16:00N 07°07' W 157°08'4 0.5 28.4
2015-May-21 08:00N 07°09' W 157°11'1 0.4 28.6
2015-May-21 05:00N 07°09' W 157°13'4 0.3 28.8
2015-May-20 16:00N 07°09' W 157°17'5 0.4 28.1
2015-May-20 04:00N 07°11' W 157°22'4 0.5 28.4
2015-May-19 20:00N 07°08' W 157°25'1 0.6 28.4
2015-May-19 19:00N 07°08' W 157°25'1 1.0 28.4
2015-May-19 18:00N 07°07' W 157°25'4 0.6 28.4
2015-May-19 12:00N 07°04' W 157°26'1 0.2 28.4
2015-May-19 08:00N 07°03' W 157°26'0 0.5 28.5
2015-May-19 07:00N 07°03' W 157°26'1 0.2 28.5
2015-May-19 04:00N 07°02' W 157°26'1 1.5 28.5
2015-May-19 03:00N 07°01' W 157°26'0 0.0 28.5
2015-May-19 02:00N 07°01' W 157°26'0 0.0 28.5
2015-May-19 01:00N 07°01' W 157°26'1 0.9 28.6
2015-May-19 00:00N 06°60' W 157°26'0 0.0 28.5
2015-May-18 23:00N 06°60' W 157°26'1 0.4 28.5
2015-May-18 20:00N 06°59' W 157°25'0 0.2 28.5
2015-May-18 19:00N 06°59' W 157°25'0 0.2 28.4
2015-May-18 17:00N 06°58' W 157°25'1 0.9 28.4
2015-May-18 16:00N 06°58' W 157°24'1 0.3 28.4
2015-May-18 11:00N 06°58' W 157°23'1 0.5 28.5
2015-May-18 08:00N 06°58' W 157°22'1 1.1 28.5
2015-May-18 07:00N 06°59' W 157°21'0 0.0 28.5
2015-May-18 06:00N 06°59' W 157°21'1 0.3 28.5
2015-May-18 04:00N 06°59' W 157°20'0 0.1 28.6
2015-May-18 02:00N 06°59' W 157°20'0 0.1 28.6
2015-May-18 01:00N 06°59' W 157°20'1 0.5 28.6
2015-May-17 23:00N 07°00' W 157°20'0 0.0 28.6
2015-May-17 22:00N 07°00' W 157°20'0 0.1 28.6
2015-May-17 21:00N 07°00' W 157°20'0 0.1 28.6
2015-May-17 15:00N 07°01' W 157°21'0 0.0 28.6
2015-May-17 14:00N 07°01' W 157°21'2 0.3 28.7
2015-May-17 07:00N 07°02' W 157°23'1 0.3 28.7
2015-May-17 04:00N 07°02' W 157°24'0 0.2 28.9
2015-May-17 03:00N 07°02' W 157°24'1 0.4 28.9
2015-May-17 01:00N 07°02' W 157°24'2 0.3 29.0
2015-May-16 17:00N 07°03' W 157°26'0 0.0 28.4
2015-May-16 16:00N 07°03' W 157°26'3 0.3 28.4
2015-May-16 08:00N 07°05' W 157°28'2 0.5 28.5
2015-May-16 04:00N 07°05' W 157°30'6 0.5 28.8
2015-May-15 16:00N 07°01' W 157°33'1 0.1 28.4
2015-May-15 06:00N 07°01' W 157°32'1 0.4 28.3
2015-May-15 04:00N 07°01' W 157°32'1 0.2 28.4
2015-May-15 01:00N 07°01' W 157°31'1 1.1 28.4
2015-May-15 00:00N 07°01' W 157°32'3 0.4 28.4
2015-May-14 17:00N 07°02' W 157°29'2 0.4 28.4
2015-May-14 13:00N 07°03' W 157°28'0 0.0 28.5
2015-May-14 12:00N 07°03' W 157°28'2 0.7 28.5
2015-May-14 09:00N 07°05' W 157°28'1 0.8 28.7
2015-May-14 08:00N 07°06' W 157°28'2 1.8 28.6
2015-May-14 07:00N 07°08' W 157°28'1 0.2 28.6
2015-May-14 04:00N 07°08' W 157°28'1 0.9 28.8
2015-May-14 03:00N 07°08' W 157°29'0 0.1 29.0
2015-May-14 00:00N 07°09' W 157°29'0 0.0 28.9
2015-May-13 23:00N 07°09' W 157°29'1 0.6 28.9
2015-May-13 21:00N 07°10' W 157°29'1 0.3 28.5
2015-May-13 19:00N 07°10' W 157°29'2 0.8 28.4
2015-May-13 17:00N 07°12' W 157°30'1 0.6 28.3
2015-May-13 15:00N 07°13' W 157°30'6 0.2 28.3
2015-May-12 16:00N 07°18' W 157°33'0 0.5 28.3
2015-May-12 15:00N 07°18' W 157°33'   28.3

Dump ship's entire track history